32.8°F
Current conditions from King Hill
Updated every 5 minutes
 
  Friday October 31, 2014

Station Historical Data
Daily Summary for May 19, 2011 Units:  Metric    English   Both
« Previous Day
Next Day »
Daily Weekly Monthly Yearly Custom
  High: Low: Average:
Temperature: 24.6 °C 14.1 °C 18.1 °C
Dew Point: 17.5 °C 12.6 °C 14.6 °C
Humidity: 93% 60% 81%
Wind Speed: 9.7km/h 0km/h 2.9km/h
Wind Gust: 19.3km/h - -
Wind- - South
Pressure: 1017.5 hPa 1014.1 hPa -
Precipitation: 3.6 mm    
Historical Graphs
 
 
Tabular Data for May 19, 2011
Time Temperature Dew Point Pressure Wind Wind Speed Wind Gust Humidity Daily Rainfall
00:00 15.2 °C 13.4 °C 1017.5 hPa Calm   6.4 km/h 89% 0 mm
00:05 15.4 °C 13.2 °C 1017.5 hPa Calm   9.7 km/h 87% 0 mm
00:10 15.7 °C 13.3 °C 1017.5 hPa Calm   9.7 km/h 86% 0 mm
00:15 16.2 °C 13.4 °C 1017.5 hPa SSE 6.4 km/h 11.3 km/h 84% 0 mm
00:20 16.6 °C 13.5 °C 1017.2 hPa Calm   11.3 km/h 82% 0 mm
00:25 16.6 °C 13.7 °C 1017.2 hPa SSW 1.6 km/h 6.4 km/h 83% 0 mm
00:30 16.5 °C 13.4 °C 1017.2 hPa SW 3.2 km/h 6.4 km/h 82% 0 mm
00:35 16.4 °C 13.5 °C 1017.2 hPa Calm   6.4 km/h 83% 0 mm
00:40 16.1 °C 13.4 °C 1017.2 hPa Calm   4.8 km/h 84% 0 mm
00:45 15.9 °C 13.4 °C 1016.8 hPa SW 1.6 km/h 8 km/h 85% 0 mm
00:50 16 °C 13.5 °C 1016.8 hPa Calm   8 km/h 85% 0 mm
00:55 16.1 °C 13.6 °C 1016.8 hPa Calm   8 km/h 85% 0 mm
01:00 16 °C 13.5 °C 1016.8 hPa Calm   1.6 km/h 85% 0 mm
01:05 15.8 °C 13.3 °C 1016.8 hPa Calm   1.6 km/h 85% 0 mm
01:10 15.8 °C 13.4 °C 1016.8 hPa Calm   4.8 km/h 86% 0 mm
01:15 15.7 °C 13.3 °C 1016.5 hPa Calm   4.8 km/h 86% 0 mm
01:20 15.6 °C 13.2 °C 1016.5 hPa Calm   4.8 km/h 86% 0 mm
01:25 15.4 °C 13.1 °C 1016.5 hPa East 1.6 km/h 6.4 km/h 86% 0 mm
01:30 15.2 °C 12.8 °C 1016.1 hPa Calm   6.4 km/h 86% 0 mm
01:35 14.9 °C 12.9 °C 1016.5 hPa Calm   1.6 km/h 88% 0 mm
01:40 14.7 °C 12.8 °C 1016.1 hPa Calm   3.2 km/h 88% 0 mm
01:45 14.7 °C 12.9 °C 1016.1 hPa Calm   3.2 km/h 89% 0 mm
01:50 14.6 °C 12.8 °C 1016.1 hPa Calm   4.8 km/h 89% 0 mm
01:55 14.6 °C 12.9 °C 1016.1 hPa Calm   4.8 km/h 90% 0 mm
02:00 14.4 °C 12.7 °C 1016.1 hPa ENE 1.6 km/h 4.8 km/h 89% 0 mm
02:05 14.3 °C 12.7 °C 1015.8 hPa Calm   4.8 km/h 90% 0 mm
02:10 14.2 °C 12.6 °C 1015.8 hPa ENE 1.6 km/h 4.8 km/h 90% 0 mm
02:15 14.1 °C 12.7 °C 1015.8 hPa East 1.6 km/h 4.8 km/h 91% 0 mm
02:20 14.1 °C 12.7 °C 1015.8 hPa East 1.6 km/h 4.8 km/h 91% 0 mm
02:25 14.3 °C 12.7 °C 1015.8 hPa Calm   8 km/h 90% 0 mm
02:30 14.4 °C 12.8 °C 1015.8 hPa Calm   8 km/h 90% 0 mm
02:35 14.3 °C 12.7 °C 1015.8 hPa Calm   4.8 km/h 90% 0 mm
02:40 14.2 °C 12.6 °C 1015.8 hPa Calm   1.6 km/h 90% 0 mm
02:45 14.2 °C 12.6 °C 1015.8 hPa Calm   1.6 km/h 90% 0 mm
02:50 14.1 °C 12.6 °C 1015.8 hPa Calm   3.2 km/h 91% 0 mm
02:55 14.1 °C 12.6 °C 1015.8 hPa Calm   3.2 km/h 91% 0 mm
03:00 14.1 °C 12.6 °C 1015.8 hPa Calm   8 km/h 91% 0 mm
03:05 14.2 °C 12.8 °C 1015.8 hPa Calm   8 km/h 91% 0 mm
03:10 14.4 °C 12.9 °C 1015.8 hPa SE 1.6 km/h 4.8 km/h 91% 0 mm
03:15 14.3 °C 12.9 °C 1015.8 hPa Calm   4.8 km/h 91% 0 mm
03:20 14.2 °C 12.8 °C 1015.8 hPa Calm   4.8 km/h 91% 0 mm
03:25 14.2 °C 12.7 °C 1015.8 hPa Calm   4.8 km/h 91% 0 mm
03:30 14.3 °C 13 °C 1015.8 hPa Calm   1.6 km/h 92% 0 mm
03:40 14.7 °C 13.4 °C 1015.8 hPa SSE 1.6 km/h 6.4 km/h 92% 0 mm
03:45 15 °C 13.7 °C 1015.8 hPa Calm   6.4 km/h 92% 0 mm
03:50 15 °C 13.6 °C 1015.8 hPa Calm   3.2 km/h 91% 0 mm
04:00 15.4 °C 13.6 °C 1015.8 hPa Calm   3.2 km/h 89% 0 mm
04:05 15.6 °C 13.6 °C 1015.8 hPa SSE 1.6 km/h 8 km/h 88% 0 mm
04:10 15.8 °C 13.8 °C 1016.1 hPa Calm   8 km/h 88% 0 mm
04:15 15.8 °C 13.6 °C 1015.8 hPa South 1.6 km/h 4.8 km/h 87% 0 mm
04:20 15.9 °C 13.7 °C 1015.8 hPa SSW 1.6 km/h 8 km/h 87% 0 mm
04:25 16.1 °C 13.9 °C 1015.8 hPa Calm   8 km/h 87% 0 mm
04:30 16.3 °C 13.9 °C 1015.8 hPa SE 1.6 km/h 9.7 km/h 86% 0 mm
04:35 16.4 °C 14.1 °C 1015.8 hPa Calm   9.7 km/h 86% 0 mm
04:40 16.4 °C 14.1 °C 1015.8 hPa Calm   4.8 km/h 86% 0 mm
04:45 16.3 °C 13.9 °C 1015.8 hPa Calm   4.8 km/h 86% 0 mm
04:50 16.3 °C 13.9 °C 1015.5 hPa Calm   4.8 km/h 86% 0 mm
04:55 16.2 °C 13.9 °C 1015.5 hPa Calm   4.8 km/h 86% 0 mm
05:00 16.1 °C 13.7 °C 1015.5 hPa Calm   8 km/h 86% 0 mm
05:05 16.2 °C 13.7 °C 1015.5 hPa East 1.6 km/h 9.7 km/h 85% 0 mm
05:15 16.3 °C 13.6 °C 1015.5 hPa Calm   11.3 km/h 84% 0 mm
05:20 16.2 °C 13.5 °C 1015.5 hPa SSE 3.2 km/h 11.3 km/h 84% 0 mm
05:30 16.3 °C 13.6 °C 1015.5 hPa SSE 3.2 km/h 8 km/h 84% 0 mm
05:35 16.3 °C 13.6 °C 1015.5 hPa Calm   8 km/h 84% 0 mm
05:40 16.2 °C 13.7 °C 1015.8 hPa Calm   4.8 km/h 85% 0 mm
05:45 15.9 °C 13.6 °C 1015.8 hPa Calm   1.6 km/h 86% 0 mm
05:50 15.7 °C 13.6 °C 1015.8 hPa SE 1.6 km/h 4.8 km/h 87% 0 mm
06:00 15.7 °C 13.7 °C 1015.8 hPa SE 1.6 km/h 4.8 km/h 88% 0 mm
06:05 15.8 °C 13.8 °C 1015.8 hPa Calm   4.8 km/h 88% 0 mm
06:10 15.8 °C 13.8 °C 1016.1 hPa Calm   4.8 km/h 88% 0 mm
06:15 15.7 °C 13.7 °C 1016.1 hPa Calm   1.6 km/h 88% 0 mm
06:20 15.7 °C 13.9 °C 1016.1 hPa Calm   6.4 km/h 89% 0 mm
06:25 15.8 °C 13.9 °C 1016.1 hPa South 1.6 km/h 6.4 km/h 89% 0.3 mm
06:30 15.8 °C 14.2 °C 1016.1 hPa South 1.6 km/h 6.4 km/h 90% 0.3 mm
06:35 15.8 °C 14.2 °C 1016.1 hPa Calm   3.2 km/h 90% 0.5 mm
06:40 15.7 °C 14.1 °C 1016.1 hPa South 1.6 km/h 4.8 km/h 90% 0.5 mm
06:45 15.6 °C 14.2 °C 1016.1 hPa Calm   4.8 km/h 91% 1 mm
06:50 15.6 °C 14.1 °C 1016.1 hPa Calm   1.6 km/h 91% 1.5 mm
07:00 15.5 °C 14.2 °C 1016.1 hPa Calm   3.2 km/h 92% 1.5 mm
07:05 15.4 °C 14.2 °C 1016.1 hPa SSE 3.2 km/h 8 km/h 92% 1.5 mm
07:10 15.4 °C 14.2 °C 1016.1 hPa SSE 3.2 km/h 9.7 km/h 92% 1.5 mm
07:15 15.6 °C 14.3 °C 1016.1 hPa SSE 1.6 km/h 11.3 km/h 92% 1.5 mm
07:20 15.6 °C 14.2 °C 1016.1 hPa SSE 1.6 km/h 12.9 km/h 91% 1.5 mm
07:25 15.7 °C 14.2 °C 1016.1 hPa SSE 6.4 km/h 12.9 km/h 91% 1.5 mm
07:30 15.7 °C 14.1 °C 1016.1 hPa SE 3.2 km/h 12.9 km/h 90% 1.5 mm
07:35 15.8 °C 14.2 °C 1016.1 hPa Calm   12.9 km/h 90% 1.8 mm
07:40 15.9 °C 14.3 °C 1016.1 hPa SSE 1.6 km/h 8 km/h 90% 1.8 mm
07:45 15.9 °C 14.3 °C 1016.1 hPa SE 1.6 km/h 6.4 km/h 90% 1.8 mm
07:50 15.9 °C 14.3 °C 1016.1 hPa SE 3.2 km/h 14.5 km/h 90% 1.8 mm
07:55 15.9 °C 14.3 °C 1016.1 hPa SE 1.6 km/h 14.5 km/h 90% 1.8 mm
08:00 15.9 °C 14.3 °C 1016.5 hPa Calm   8 km/h 90% 1.8 mm
08:05 15.9 °C 14.3 °C 1016.5 hPa SSW 1.6 km/h 9.7 km/h 90% 1.8 mm
08:10 15.9 °C 14.3 °C 1016.5 hPa Calm   9.7 km/h 90% 1.8 mm
08:15 15.9 °C 14.3 °C 1016.5 hPa Calm   6.4 km/h 90% 2 mm
08:20 15.8 °C 14.2 °C 1016.5 hPa SE 1.6 km/h 6.4 km/h 90% 2.3 mm
08:25 15.7 °C 14.1 °C 1016.5 hPa SSW 1.6 km/h 6.4 km/h 90% 2.5 mm
08:30 15.6 °C 14.1 °C 1016.5 hPa Calm   8 km/h 91% 2.5 mm
08:35 15.6 °C 14.1 °C 1016.5 hPa Calm   8 km/h 91% 2.5 mm
08:40 15.6 °C 14.1 °C 1016.5 hPa Calm   3.2 km/h 91% 2.8 mm
08:45 15.6 °C 14.3 °C 1016.5 hPa Calm     92% 2.8 mm
08:50 15.6 °C 14.3 °C 1016.5 hPa Calm   1.6 km/h 92% 3 mm
08:55 15.6 °C 14.3 °C 1016.5 hPa Calm   1.6 km/h 92% 3 mm
09:00 15.6 °C 14.3 °C 1016.5 hPa Calm   1.6 km/h 92% 3 mm
09:05 15.6 °C 14.4 °C 1016.8 hPa Calm     93% 3.3 mm
09:10 15.5 °C 14.4 °C 1016.8 hPa Calm   6.4 km/h 93% 3.3 mm
09:15 15.4 °C 14.3 °C 1016.8 hPa Calm   6.4 km/h 93% 3.6 mm
09:20 15.4 °C 14.3 °C 1016.5 hPa Calm   4.8 km/h 93% 3.6 mm
09:25 15.3 °C 14.2 °C 1016.8 hPa Calm   4.8 km/h 93% 3.6 mm
09:30 15.4 °C 14.3 °C 1016.5 hPa Calm   1.6 km/h 93% 3.6 mm
09:35 15.5 °C 14.4 °C 1016.5 hPa Calm   3.2 km/h 93% 3.6 mm
09:40 15.6 °C 14.4 °C 1016.5 hPa Calm   3.2 km/h 93% 3.6 mm
09:45 15.8 °C 14.7 °C 1016.5 hPa Calm     93% 3.6 mm
09:50 15.9 °C 14.8 °C 1016.5 hPa Calm     93% 3.6 mm
10:00 16.3 °C 15 °C 1016.5 hPa Calm   1.6 km/h 92% 3.6 mm
10:05 16.3 °C 14.9 °C 1016.5 hPa SSE 1.6 km/h 8 km/h 91% 3.6 mm
10:10 16.5 °C 15 °C 1016.5 hPa SE 1.6 km/h 8 km/h 91% 3.6 mm
10:20 16.8 °C 15.2 °C 1016.5 hPa Calm   8 km/h 90% 3.6 mm
10:25 17.2 °C 15.7 °C 1016.5 hPa Calm   3.2 km/h 91% 3.6 mm
10:30 17.6 °C 15.8 °C 1016.5 hPa SSE 1.6 km/h 9.7 km/h 89% 3.6 mm
10:35 18.1 °C 15.8 °C 1016.5 hPa SE 4.8 km/h 9.7 km/h 87% 3.6 mm
10:40 18.4 °C 16.2 °C 1016.5 hPa SSE 1.6 km/h 9.7 km/h 87% 3.6 mm
10:45 18.6 °C 16.2 °C 1016.5 hPa SSE 1.6 km/h 9.7 km/h 86% 3.6 mm
10:50 18.8 °C 16.1 °C 1016.5 hPa Calm   9.7 km/h 84% 3.6 mm
10:55 19.1 °C 16.3 °C 1016.5 hPa ENE 1.6 km/h 11.3 km/h 84% 3.6 mm
11:00 19.2 °C 16.4 °C 1016.5 hPa ESE 1.6 km/h 11.3 km/h 84% 3.6 mm
11:05 19.3 °C 16.2 °C 1016.5 hPa SW 6.4 km/h 14.5 km/h 82% 3.6 mm
11:10 19.3 °C 16 °C 1016.5 hPa SSW 6.4 km/h 14.5 km/h 81% 3.6 mm
11:15 19.6 °C 16 °C 1016.5 hPa SSE 4.8 km/h 11.3 km/h 80% 3.6 mm
11:25 19.7 °C 16.2 °C 1016.5 hPa Calm   11.3 km/h 80% 3.6 mm
11:30 19.6 °C 16.2 °C 1016.1 hPa Calm   11.3 km/h 81% 3.6 mm
11:35 19.7 °C 16 °C 1016.1 hPa SSW 3.2 km/h 11.3 km/h 79% 3.6 mm
11:40 20 °C 16.3 °C 1016.1 hPa South 1.6 km/h 11.3 km/h 79% 3.6 mm
11:45 20.5 °C 16.3 °C 1016.1 hPa SW 4.8 km/h 11.3 km/h 77% 3.6 mm
11:50 20.6 °C 16.4 °C 1016.1 hPa SW 6.4 km/h 11.3 km/h 77% 3.6 mm
11:55 20.8 °C 16.2 °C 1016.1 hPa West 1.6 km/h 11.3 km/h 75% 3.6 mm
12:00 20.9 °C 16.9 °C 1016.1 hPa SW 1.6 km/h 12.9 km/h 78% 3.6 mm
12:05 20.7 °C 16.6 °C 1016.1 hPa SSW 3.2 km/h 12.9 km/h 77% 3.6 mm
12:10 20.8 °C 16.2 °C 1016.1 hPa WSW 8 km/h 12.9 km/h 75% 3.6 mm
12:15 20.8 °C 16 °C 1015.8 hPa SW 4.8 km/h 12.9 km/h 74% 3.6 mm
12:20 20.8 °C 16.1 °C 1015.8 hPa South 1.6 km/h 12.9 km/h 74% 3.6 mm
12:30 21.7 °C 16.9 °C 1015.8 hPa South 4.8 km/h 11.3 km/h 74% 3.6 mm
12:35 22.1 °C 17.5 °C 1015.8 hPa West 1.6 km/h 11.3 km/h 75% 3.6 mm
12:40 22.1 °C 16.3 °C 1015.8 hPa SE 1.6 km/h 11.3 km/h 70% 3.6 mm
12:45 21.7 °C 16.2 °C 1015.8 hPa Calm   9.7 km/h 71% 3.6 mm
12:50 21.6 °C 16.1 °C 1015.8 hPa East 1.6 km/h 11.3 km/h 71% 3.6 mm
13:00 21.8 °C 16.3 °C 1015.8 hPa Calm   11.3 km/h 71% 3.6 mm
13:05 22.2 °C 16.9 °C 1015.5 hPa Calm   14.5 km/h 72% 3.6 mm
13:10 22.3 °C 16.6 °C 1015.8 hPa SSW 1.6 km/h 14.5 km/h 70% 3.6 mm
13:15 22 °C 16.1 °C 1015.8 hPa SW 8 km/h 14.5 km/h 69% 3.6 mm
13:20 22.1 °C 16.3 °C 1015.8 hPa Calm   14.5 km/h 70% 3.6 mm
13:25 22 °C 15.6 °C 1015.8 hPa SSE 1.6 km/h 8 km/h 67% 3.6 mm
13:35 21.9 °C 16.2 °C 1015.8 hPa Calm   8 km/h 70% 3.6 mm
13:40 22.1 °C 15.7 °C 1015.8 hPa SW 9.7 km/h 17.7 km/h 67% 3.6 mm
13:45 21.9 °C 15.7 °C 1015.8 hPa South 6.4 km/h 19.3 km/h 68% 3.6 mm
13:50 21.9 °C 15.8 °C 1015.8 hPa SSW 4.8 km/h 19.3 km/h 68% 3.6 mm
13:55 22.1 °C 15.9 °C 1015.5 hPa Calm   14.5 km/h 68% 3.6 mm
14:00 22.6 °C 16.4 °C 1015.5 hPa SW 4.8 km/h 14.5 km/h 68% 3.6 mm
14:05 22.9 °C 16.9 °C 1015.5 hPa SW 4.8 km/h 11.3 km/h 69% 3.6 mm
14:10 22.9 °C 16.5 °C 1015.5 hPa SW 3.2 km/h 11.3 km/h 67% 3.6 mm
14:15 22.5 °C 16.1 °C 1015.5 hPa South 3.2 km/h 11.3 km/h 67% 3.6 mm
14:25 22.5 °C 16.6 °C 1015.5 hPa Calm   9.7 km/h 69% 3.6 mm
14:30 22.8 °C 16.4 °C 1015.5 hPa SW 4.8 km/h 11.3 km/h 67% 3.6 mm
14:35 22.7 °C 16.5 °C 1015.5 hPa Calm   12.9 km/h 68% 3.6 mm
14:40 22.3 °C 15.7 °C 1015.5 hPa SSW 4.8 km/h 12.9 km/h 66% 3.6 mm
14:45 21.9 °C 16 °C 1015.5 hPa SSW 3.2 km/h 11.3 km/h 69% 3.6 mm
14:50 22.3 °C 16.1 °C 1015.5 hPa Calm   9.7 km/h 68% 3.6 mm
15:00 22.9 °C 16.7 °C 1015.1 hPa WSW 3.2 km/h 11.3 km/h 68% 3.6 mm
15:05 23.4 °C 17.2 °C 1015.1 hPa South 4.8 km/h 14.5 km/h 68% 3.6 mm
15:10 23.4 °C 17 °C 1015.1 hPa SSW 3.2 km/h 14.5 km/h 67% 3.6 mm
15:15 23.4 °C 16.5 °C 1015.1 hPa SW 6.4 km/h 14.5 km/h 65% 3.6 mm
15:20 23.7 °C 16.4 °C 1015.1 hPa Calm   14.5 km/h 64% 3.6 mm
15:25 23.4 °C 16 °C 1015.1 hPa SE 8 km/h 12.9 km/h 63% 3.6 mm
15:30 23.2 °C 16 °C 1015.1 hPa SSE 1.6 km/h 14.5 km/h 64% 3.6 mm
15:40 23.4 °C 15.7 °C 1015.1 hPa SSW 3.2 km/h 16.1 km/h 62% 3.6 mm
15:45 23.7 °C 16.3 °C 1014.8 hPa SSE 3.2 km/h 16.1 km/h 63% 3.6 mm
15:50 23.6 °C 16.3 °C 1014.8 hPa SSE 1.6 km/h 14.5 km/h 64% 3.6 mm
15:55 23.2 °C 15.5 °C 1014.8 hPa SE 3.2 km/h 14.5 km/h 62% 3.6 mm
16:00 23.1 °C 16.2 °C 1014.8 hPa Calm   9.7 km/h 65% 3.6 mm
16:05 23.1 °C 16.4 °C 1014.8 hPa Calm   6.4 km/h 66% 3.6 mm
16:10 22.8 °C 15.9 °C 1014.8 hPa Calm   1.6 km/h 65% 3.6 mm
16:15 22.8 °C 16.2 °C 1014.8 hPa Calm   1.6 km/h 66% 3.6 mm
16:20 23.1 °C 16.1 °C 1014.4 hPa Calm   1.6 km/h 65% 3.6 mm
16:25 23.5 °C 16.1 °C 1014.8 hPa ENE 1.6 km/h 4.8 km/h 63% 3.6 mm
16:30 23.7 °C 16 °C 1014.4 hPa Calm   6.4 km/h 62% 3.6 mm
16:40 23.5 °C 15.6 °C 1014.4 hPa Calm   8 km/h 61% 3.6 mm
16:50 23.9 °C 16.7 °C 1014.1 hPa Calm   3.2 km/h 64% 3.6 mm
16:55 24.3 °C 16 °C 1014.1 hPa Calm   9.7 km/h 60% 3.6 mm
17:00 24.6 °C 16.6 °C 1014.1 hPa NE 1.6 km/h 9.7 km/h 61% 3.6 mm
17:10 24.2 °C 16.7 °C 1014.1 hPa Calm   11.3 km/h 63% 3.6 mm
17:15 24 °C 16.3 °C 1014.1 hPa SE 1.6 km/h 9.7 km/h 62% 3.6 mm
17:20 24.1 °C 16.3 °C 1014.1 hPa SSW 3.2 km/h 11.3 km/h 62% 3.6 mm
17:25 23.9 °C 16.2 °C 1014.1 hPa South 1.6 km/h 11.3 km/h 62% 3.6 mm
17:30 23.9 °C 15.7 °C 1014.1 hPa Calm   8 km/h 60% 3.6 mm
17:35 23.8 °C 15.6 °C 1014.1 hPa Calm   8 km/h 60% 3.6 mm
17:40 23.6 °C 15.9 °C 1014.1 hPa SW 1.6 km/h 9.7 km/h 62% 3.6 mm
17:45 23.3 °C 15.7 °C 1014.1 hPa SW 1.6 km/h 12.9 km/h 62% 3.6 mm
17:50 23.1 °C 15.4 °C 1014.4 hPa South 1.6 km/h 12.9 km/h 62% 3.6 mm
17:55 22.9 °C 15.2 °C 1014.4 hPa Calm   11.3 km/h 62% 3.6 mm
18:00 22.7 °C 15.5 °C 1014.4 hPa SW 1.6 km/h 11.3 km/h 64% 3.6 mm
18:05 22.4 °C 15.5 °C 1014.4 hPa Calm   8 km/h 65% 3.6 mm
18:15 21.8 °C 15.4 °C 1014.4 hPa Calm   8 km/h 67% 3.6 mm
18:20 21.7 °C 15.3 °C 1014.1 hPa Calm   8 km/h 67% 3.6 mm
18:25 21.6 °C 15.2 °C 1014.4 hPa Calm   8 km/h 67% 3.6 mm
18:30 21.5 °C 15.1 °C 1014.4 hPa Calm   9.7 km/h 67% 3.6 mm
18:35 21.3 °C 15.2 °C 1014.1 hPa Calm   9.7 km/h 68% 3.6 mm
18:45 20.9 °C 15.3 °C 1014.1 hPa Calm   1.6 km/h 70% 3.6 mm
18:50 20.7 °C 15.4 °C 1014.1 hPa Calm   1.6 km/h 72% 3.6 mm
19:00 20.3 °C 16.1 °C 1014.1 hPa Calm   1.6 km/h 77% 3.6 mm
19:05 20.2 °C 16.1 °C 1014.1 hPa Calm     77% 3.6 mm
19:10 20.2 °C 16.3 °C 1014.4 hPa Calm     78% 3.6 mm
19:15 20.1 °C 16.2 °C 1014.1 hPa Calm     78% 3.6 mm
19:20 19.7 °C 15.8 °C 1014.4 hPa Calm     78% 3.6 mm
19:25 19.2 °C 15.3 °C 1014.4 hPa Calm     78% 3.6 mm
19:30 18.9 °C 15.2 °C 1014.4 hPa Calm     79% 3.6 mm
19:35 18.7 °C 15 °C 1014.4 hPa Calm     79% 3.6 mm
19:45 18.6 °C 15.3 °C 1014.4 hPa Calm   1.6 km/h 81% 3.6 mm
19:50 18.6 °C 15.2 °C 1014.4 hPa Calm   3.2 km/h 81% 3.6 mm
19:55 18.4 °C 15.1 °C 1014.4 hPa Calm   3.2 km/h 81% 3.6 mm
20:00 18.2 °C 15.1 °C 1014.4 hPa Calm     82% 3.6 mm
20:05 17.9 °C 14.8 °C 1014.4 hPa Calm     82% 3.6 mm
20:10 17.7 °C 14.6 °C 1014.4 hPa SSW 1.6 km/h 6.4 km/h 82% 3.6 mm
20:15 17.7 °C 14.6 °C 1014.4 hPa South 1.6 km/h 6.4 km/h 82% 3.6 mm
20:20 17.6 °C 14.5 °C 1014.4 hPa SSE 3.2 km/h 8 km/h 82% 3.6 mm
20:25 17.6 °C 14.3 °C 1014.4 hPa Calm   8 km/h 81% 3.6 mm
20:30 17.7 °C 14.4 °C 1014.4 hPa SE 1.6 km/h 6.4 km/h 81% 3.6 mm
20:35 17.7 °C 14.6 °C 1014.4 hPa Calm   6.4 km/h 82% 3.6 mm
20:40 17.7 °C 14.4 °C 1014.4 hPa SSE 1.6 km/h 6.4 km/h 81% 3.6 mm
20:45 17.6 °C 14.3 °C 1014.4 hPa SSW 1.6 km/h 8 km/h 81% 3.6 mm
20:50 17.6 °C 14.4 °C 1014.4 hPa Calm   8 km/h 82% 3.6 mm
20:55 17.4 °C 14.6 °C 1014.4 hPa Calm   6.4 km/h 83% 3.6 mm
21:00 17.3 °C 14.2 °C 1014.4 hPa South 1.6 km/h 6.4 km/h 82% 3.6 mm
21:05 17.4 °C 14.3 °C 1014.4 hPa SSW 1.6 km/h 6.4 km/h 82% 3.6 mm
21:10 17.6 °C 14.4 °C 1014.4 hPa Calm   6.4 km/h 82% 3.6 mm
21:15 17.6 °C 14.3 °C 1014.4 hPa Calm   6.4 km/h 81% 3.6 mm
21:20 17.4 °C 14.2 °C 1014.4 hPa SSW 1.6 km/h 6.4 km/h 81% 3.6 mm
21:25 17.4 °C 14.3 °C 1014.8 hPa South 3.2 km/h 8 km/h 82% 3.6 mm
21:30 17.4 °C 14.3 °C 1014.8 hPa South 3.2 km/h 8 km/h 82% 3.6 mm
21:35 17.4 °C 14.3 °C 1014.8 hPa Calm   8 km/h 82% 3.6 mm
21:40 17.3 °C 14.2 °C 1014.8 hPa SSW 1.6 km/h 6.4 km/h 82% 3.6 mm
21:45 16.9 °C 14.1 °C 1014.8 hPa Calm   4.8 km/h 83% 3.6 mm
21:50 16.7 °C 14.1 °C 1014.8 hPa Calm     85% 3.6 mm
22:00 16.3 °C 13.9 °C 1014.8 hPa Calm   1.6 km/h 86% 3.6 mm
22:05 16.1 °C 13.7 °C 1014.8 hPa Calm   1.6 km/h 86% 3.6 mm
22:10 15.8 °C 13.7 °C 1014.8 hPa SSW 1.6 km/h 4.8 km/h 87% 3.6 mm
22:15 15.6 °C 13.4 °C 1014.8 hPa Calm   4.8 km/h 87% 3.6 mm
22:20 15.4 °C 13.2 °C 1014.8 hPa Calm   3.2 km/h 87% 3.6 mm
22:25 15.3 °C 13.3 °C 1014.8 hPa Calm   3.2 km/h 88% 3.6 mm
22:30 15.1 °C 13.2 °C 1014.8 hPa Calm   4.8 km/h 88% 3.6 mm
22:35 15.2 °C 13.4 °C 1014.8 hPa Calm   4.8 km/h 89% 3.6 mm
22:40 15.2 °C 13.4 °C 1014.8 hPa Calm   1.6 km/h 89% 3.6 mm
22:45 15.2 °C 13.4 °C 1014.8 hPa Calm   1.6 km/h 89% 3.6 mm
22:50 15.1 °C 13.2 °C 1014.8 hPa SSW 1.6 km/h 3.2 km/h 88% 3.6 mm
22:55 15.2 °C 13.4 °C 1014.4 hPa Calm   3.2 km/h 89% 3.6 mm
23:00 15.3 °C 13.3 °C 1014.4 hPa Calm   1.6 km/h 88% 3.6 mm
23:05 15.3 °C 13.3 °C 1014.4 hPa Calm   3.2 km/h 88% 3.6 mm
23:10 15.3 °C 13.3 °C 1014.4 hPa Calm   3.2 km/h 88% 3.6 mm
23:20 14.8 °C 12.8 °C 1014.1 hPa Calm   3.2 km/h 88% 3.6 mm
23:25 14.7 °C 12.9 °C 1014.1 hPa Calm   3.2 km/h 89% 3.6 mm
23:35 15.2 °C 13.2 °C 1014.1 hPa South 3.2 km/h 8 km/h 88% 3.6 mm
23:40 15.4 °C 13.3 °C 1014.4 hPa South 1.6 km/h 8 km/h 87% 3.6 mm
23:45 15.6 °C 13.4 °C 1014.4 hPa Calm   6.4 km/h 87% 3.6 mm
23:50 15.6 °C 13.3 °C 1014.4 hPa Calm   6.4 km/h 86% 3.6 mm
23:55 15.6 °C 13.4 °C 1014.4 hPa Calm   6.4 km/h 87% 3.6 mm
Westford Weather
Compliments of Weather Underground

 
 
Current Radar Loop:

Copyright © WestfordWeather.net 2007-2014. All rights reserved.